createdAt,value
2019-06-08T00:01:16.483Z,550.00
2019-06-08T00:03:42.647Z,546.27
2019-06-08T00:06:08.716Z,544.88
2019-06-08T00:08:34.796Z,553.45
2019-06-08T00:11:00.888Z,559.80
2019-06-08T00:13:27.585Z,547.80
2019-06-08T00:15:53.657Z,544.25
2019-06-08T00:18:19.720Z,548.52
2019-06-08T00:20:45.816Z,558.35
2019-06-08T00:23:11.884Z,551.02
2019-06-08T00:25:37.971Z,554.05
2019-06-08T00:28:04.041Z,547.30
2019-06-08T00:30:30.740Z,568.77
2019-06-08T00:32:56.884Z,544.75
2019-06-08T00:35:22.944Z,575.98
2019-06-08T00:37:49.123Z,563.72
2019-06-08T00:40:15.441Z,560.50
2019-06-08T00:42:41.600Z,555.33
2019-06-08T00:45:08.788Z,549.48
2019-06-08T00:47:47.030Z,550.92
2019-06-08T00:50:04.920Z,548.15
2019-06-08T00:52:30.984Z,555.77
2019-06-08T00:54:57.074Z,550.48
2019-06-08T00:57:23.830Z,561.73
2019-06-08T00:59:50.053Z,545.88
2019-06-08T01:02:16.232Z,573.23
2019-06-08T01:04:42.297Z,555.67
2019-06-08T01:07:08.371Z,560.70
2019-06-08T01:09:34.456Z,554.27
2019-06-08T01:12:00.530Z,554.92
2019-06-08T01:14:27.074Z,547.33
2019-06-08T01:16:53.392Z,556.02
2019-06-08T01:19:19.555Z,548.05
2019-06-08T01:21:45.648Z,549.92
2019-06-08T01:24:13.173Z,550.58
2019-06-08T01:26:39.353Z,549.92
2019-06-08T01:29:05.410Z,602.85
2019-06-08T01:31:31.503Z,556.75
2019-06-08T01:33:57.660Z,548.75
2019-06-08T01:36:24.772Z,556.47
2019-06-08T01:38:51.020Z,540.65
2019-06-08T01:41:17.112Z,550.08
2019-06-08T01:43:43.175Z,546.50
2019-06-08T01:46:10.551Z,552.78
2019-06-08T01:48:36.625Z,543.27
2019-06-08T01:51:02.684Z,547.25
2019-06-08T01:53:28.899Z,562.52
2019-06-08T01:55:55.029Z,561.05
2019-06-08T01:58:21.108Z,543.60
2019-06-08T02:00:48.639Z,551.75
2019-06-08T02:03:14.704Z,543.17
2019-06-08T02:05:40.988Z,544.83
2019-06-08T02:08:07.061Z,541.58
2019-06-08T02:10:33.229Z,550.92
2019-06-08T02:12:59.308Z,545.15
2019-06-08T02:15:25.505Z,558.15
2019-06-08T02:17:51.587Z,543.23
2019-06-08T02:20:17.956Z,553.08
2019-06-08T02:22:44.020Z,539.35
2019-06-08T02:25:10.719Z,549.33
2019-06-08T02:27:36.775Z,548.33
2019-06-08T02:30:15.278Z,538.65
2019-06-08T02:32:41.446Z,546.20
2019-06-08T02:35:08.212Z,549.75
2019-06-08T02:37:35.377Z,541.75
2019-06-08T02:40:04.784Z,546.27
2019-06-08T02:42:32.641Z,562.48
2019-06-08T02:45:19.019Z,545.62
2019-06-08T02:47:45.317Z,537.92
2019-06-08T02:50:11.894Z,538.90
2019-06-08T02:52:41.776Z,535.65
2019-06-08T02:55:09.082Z,538.77
2019-06-08T02:57:37.481Z,541.20
2019-06-08T03:00:06.840Z,544.55
2019-06-08T03:02:33.994Z,531.52
2019-06-08T03:05:02.122Z,544.25
2019-06-08T03:07:32.343Z,530.73
2019-06-08T03:09:59.092Z,537.80
2019-06-08T03:12:25.998Z,530.40
2019-06-08T03:14:52.878Z,534.03
2019-06-08T03:17:19.069Z,531.95
2019-06-08T03:19:45.144Z,551.20
2019-06-08T03:22:11.424Z,545.50
2019-06-08T03:24:38.728Z,531.80
2019-06-08T03:27:05.140Z,530.20
2019-06-08T03:29:32.480Z,547.30
2019-06-08T03:31:58.711Z,543.97
2019-06-08T03:34:24.902Z,555.73
2019-06-08T03:36:56.142Z,544.62
2019-06-08T03:39:19.090Z,550.62
2019-06-08T03:41:45.327Z,544.25
2019-06-08T03:44:11.641Z,629.10
2019-06-08T03:46:38.804Z,554.00
2019-06-08T03:49:05.500Z,544.73
2019-06-08T03:51:35.290Z,543.40
2019-06-08T03:53:59.590Z,552.97
2019-06-08T03:56:25.759Z,548.80
2019-06-08T03:58:51.823Z,550.22
2019-06-08T04:01:17.897Z,548.17
2019-06-08T04:03:45.986Z,550.65
2019-06-08T04:06:12.581Z,546.25
2019-06-08T04:08:40.815Z,545.57
2019-06-08T04:11:06.690Z,543.83
2019-06-08T04:13:33.051Z,547.13
2019-06-08T04:15:59.116Z,547.15
2019-06-08T04:18:25.239Z,542.48
2019-06-08T04:20:51.725Z,540.65
2019-06-08T04:23:18.056Z,535.23
2019-06-08T04:25:44.978Z,543.33
2019-06-08T04:28:12.121Z,547.67
2019-06-08T04:30:38.661Z,559.35
2019-06-08T04:33:04.988Z,544.97
2019-06-08T04:35:31.158Z,538.30
2019-06-08T04:37:57.236Z,543.02
2019-06-08T04:40:23.337Z,557.27
2019-06-08T04:42:51.039Z,541.58
2019-06-08T04:45:17.589Z,546.42
2019-06-08T04:47:45.437Z,540.65
2019-06-08T04:50:22.363Z,539.20
2019-06-08T04:52:40.877Z,552.80
2019-06-08T04:55:07.233Z,562.27
2019-06-08T04:57:33.301Z,543.27
2019-06-08T04:59:59.369Z,546.92
2019-06-08T05:02:25.562Z,545.73
2019-06-08T05:04:51.627Z,535.50
2019-06-08T05:07:17.695Z,567.65
2019-06-08T05:09:45.092Z,544.33
2019-06-08T05:12:11.336Z,533.92
2019-06-08T05:14:38.983Z,540.62
2019-06-08T05:17:05.311Z,544.65
2019-06-08T05:19:31.642Z,538.95
2019-06-08T05:21:58.491Z,538.85
2019-06-08T05:24:24.680Z,542.48
2019-06-08T05:26:50.926Z,549.10
2019-06-08T05:29:17.120Z,632.98
2019-06-08T05:31:43.555Z,541.77
2019-06-08T05:34:09.780Z,537.45
2019-06-08T05:36:35.843Z,547.58
2019-06-08T05:39:04.451Z,536.12
2019-06-08T05:41:30.616Z,538.70
2019-06-08T05:43:56.688Z,560.75
2019-06-08T05:46:22.843Z,538.65
2019-06-08T05:48:50.269Z,544.15
2019-06-08T05:51:16.665Z,541.12
2019-06-08T05:53:43.813Z,570.08
2019-06-08T05:56:10.030Z,541.45
2019-06-08T05:58:36.101Z,572.42
2019-06-08T06:01:02.198Z,543.70
2019-06-08T06:03:28.263Z,557.25
2019-06-08T06:05:54.936Z,551.60
2019-06-08T06:08:21.039Z,545.38
2019-06-08T06:10:47.116Z,551.15
2019-06-08T06:13:13.199Z,547.75
2019-06-08T06:15:39.295Z,542.63
2019-06-08T06:18:05.364Z,550.08
2019-06-08T06:20:31.471Z,544.97
2019-06-08T06:22:58.630Z,547.00
2019-06-08T06:25:24.978Z,553.77
2019-06-08T06:27:51.784Z,584.22
2019-06-08T06:30:18.316Z,559.48
2019-06-08T06:32:45.885Z,561.60
2019-06-08T06:35:12.382Z,559.00
2019-06-08T06:37:38.468Z,588.65
2019-06-08T06:40:06.364Z,567.58
2019-06-08T06:42:32.443Z,579.20
2019-06-08T06:44:58.619Z,573.17
2019-06-08T06:47:24.706Z,569.80
2019-06-08T06:49:50.803Z,557.42
2019-06-08T06:52:16.959Z,562.70
2019-06-08T06:54:43.032Z,559.08
2019-06-08T06:57:09.095Z,557.50
2019-06-08T06:59:35.216Z,555.22
2019-06-08T07:02:01.650Z,562.88
2019-06-08T07:04:27.844Z,569.88
2019-06-08T07:06:54.416Z,551.63
2019-06-08T07:09:20.736Z,570.40
2019-06-08T07:11:46.909Z,555.63
2019-06-08T07:14:13.195Z,627.62
2019-06-08T07:16:39.288Z,561.98
2019-06-08T07:19:05.402Z,558.77
2019-06-08T07:21:41.357Z,558.07
2019-06-08T07:23:59.542Z,560.63
2019-06-08T07:26:25.607Z,558.33
2019-06-08T07:28:52.539Z,565.83
2019-06-08T07:31:20.452Z,563.35
2019-06-08T07:33:46.803Z,569.62
2019-06-08T07:36:14.407Z,563.70
2019-06-08T07:38:40.516Z,567.67
2019-06-08T07:41:06.585Z,557.58
2019-06-08T07:43:32.746Z,556.45
2019-06-08T07:46:00.515Z,559.73
2019-06-08T07:48:26.684Z,560.95
2019-06-08T07:50:52.767Z,565.92
2019-06-08T07:53:18.925Z,562.40
2019-06-08T07:55:45.480Z,563.35
2019-06-08T07:58:11.850Z,565.08
2019-06-08T08:00:37.949Z,552.37
2019-06-08T08:03:04.116Z,565.20
2019-06-08T08:05:30.190Z,552.33
2019-06-08T08:07:56.857Z,544.92
2019-06-08T08:10:23.164Z,552.55
2019-06-08T08:12:49.655Z,558.72
2019-06-08T08:15:17.848Z,553.17
2019-06-08T08:17:43.939Z,563.45
2019-06-08T08:20:10.700Z,560.63
2019-06-08T08:22:38.237Z,561.98
2019-06-08T08:25:08.205Z,558.70
2019-06-08T08:27:34.658Z,551.00
2019-06-08T08:30:02.113Z,567.67
2019-06-08T08:32:28.630Z,562.23
2019-06-08T08:34:56.473Z,568.23
2019-06-08T08:37:22.695Z,561.92
2019-06-08T08:39:50.078Z,564.23
2019-06-08T08:42:18.036Z,579.48
2019-06-08T08:44:44.367Z,572.42
2019-06-08T08:47:10.440Z,571.80
2019-06-08T08:49:37.976Z,555.77
2019-06-08T08:52:04.324Z,601.90
2019-06-08T08:54:30.389Z,579.85
2019-06-08T08:57:00.763Z,595.00
2019-06-08T08:59:24.460Z,621.77
2019-06-08T09:01:51.814Z,556.17
2019-06-08T09:04:18.675Z,564.05
2019-06-08T09:06:44.888Z,598.45
2019-06-08T09:09:10.987Z,562.72
2019-06-08T09:11:40.813Z,561.38
2019-06-08T09:14:09.592Z,591.73
2019-06-08T09:16:33.208Z,578.15
2019-06-08T09:19:02.469Z,560.73
2019-06-08T09:21:28.092Z,567.10
2019-06-08T09:23:55.751Z,579.58
2019-06-08T09:26:22.471Z,572.75
2019-06-08T09:28:48.547Z,587.72
2019-06-08T09:31:15.556Z,584.25
2019-06-08T09:33:41.711Z,578.25
2019-06-08T09:36:08.261Z,563.58
2019-06-08T09:38:34.711Z,572.83
2019-06-08T09:41:03.392Z,578.58
2019-06-08T09:43:29.032Z,579.70
2019-06-08T09:45:55.405Z,579.48
2019-06-08T09:48:22.668Z,591.05
2019-06-08T09:50:48.845Z,580.00
2019-06-08T09:53:26.791Z,590.55
2019-06-08T09:55:43.107Z,596.77
2019-06-08T09:58:11.679Z,574.52
2019-06-08T10:00:37.913Z,581.97
2019-06-08T10:03:06.254Z,603.00
2019-06-08T10:05:32.128Z,584.75
2019-06-08T10:08:00.560Z,584.33
2019-06-08T10:10:26.208Z,579.38
2019-06-08T10:12:52.285Z,631.00
2019-06-08T10:15:18.688Z,587.42
2019-06-08T10:17:47.445Z,583.80
2019-06-08T10:20:13.533Z,573.62
2019-06-08T10:22:39.612Z,569.52
2019-06-08T10:25:10.297Z,574.30
2019-06-08T10:27:34.493Z,582.27
2019-06-08T10:30:03.150Z,588.50
2019-06-08T10:32:28.635Z,579.53
2019-06-08T10:34:56.432Z,587.98
2019-06-08T10:37:22.692Z,587.30
2019-06-08T10:39:48.788Z,580.63
2019-06-08T10:42:14.872Z,580.73
2019-06-08T10:44:40.951Z,579.20
2019-06-08T10:47:10.063Z,581.75
2019-06-08T10:49:35.008Z,611.70
2019-06-08T10:52:03.441Z,634.65
2019-06-08T10:54:29.297Z,592.63
2019-06-08T10:56:55.480Z,580.03
2019-06-08T10:59:21.552Z,671.33
2019-06-08T11:01:47.628Z,602.23
2019-06-08T11:04:13.713Z,603.70
2019-06-08T11:06:40.364Z,615.10
2019-06-08T11:09:12.339Z,589.78
2019-06-08T11:11:34.658Z,590.98
2019-06-08T11:14:02.529Z,592.55
2019-06-08T11:16:28.835Z,601.00
2019-06-08T11:18:55.034Z,619.23
2019-06-08T11:21:21.284Z,608.77
2019-06-08T11:24:05.134Z,598.28
2019-06-08T11:26:20.733Z,629.00
2019-06-08T11:28:43.424Z,605.30
2019-06-08T11:31:15.771Z,600.30
2019-06-08T11:33:39.000Z,608.75
2019-06-08T11:36:07.216Z,604.67
2019-06-08T11:38:33.347Z,618.58
2019-06-08T11:41:00.987Z,605.30
2019-06-08T11:43:28.729Z,597.83
2019-06-08T11:45:55.111Z,597.05
2019-06-08T11:48:22.812Z,587.67
2019-06-08T11:50:49.116Z,590.98
2019-06-08T11:53:17.857Z,591.92
2019-06-08T11:55:43.467Z,605.80
2019-06-08T11:58:12.101Z,612.33
2019-06-08T12:01:00.939Z,638.08
2019-06-08T12:03:27.635Z,627.85
2019-06-08T12:05:53.557Z,629.98
2019-06-08T12:08:20.884Z,637.38
2019-06-08T12:10:49.097Z,622.33
2019-06-08T12:13:17.726Z,623.33
2019-06-08T12:15:43.684Z,646.80
2019-06-08T12:18:11.403Z,624.83
2019-06-08T12:20:37.950Z,613.22
2019-06-08T12:23:04.145Z,631.70
2019-06-08T12:25:30.208Z,639.32
2019-06-08T12:27:58.432Z,634.20
2019-06-08T12:30:26.131Z,636.35
2019-06-08T12:32:52.325Z,634.92
2019-06-08T12:35:18.420Z,634.52
2019-06-08T12:37:44.488Z,635.55
2019-06-08T12:40:13.270Z,646.30
2019-06-08T12:42:38.568Z,696.08
2019-06-08T12:45:05.560Z,682.25
2019-06-08T12:47:31.625Z,676.13
2019-06-08T12:49:58.475Z,642.95
2019-06-08T12:52:24.878Z,675.70
2019-06-08T12:55:02.444Z,659.73
2019-06-08T12:57:20.377Z,673.47
2019-06-08T12:59:46.924Z,706.20
2019-06-08T13:02:16.593Z,724.25
2019-06-08T13:04:40.999Z,779.00
2019-06-08T13:07:08.817Z,852.20
2019-06-08T13:09:37.930Z,861.77
2019-06-08T13:12:03.164Z,848.85
2019-06-08T13:14:29.233Z,909.43
2019-06-08T13:16:55.631Z,886.20
2019-06-08T13:19:21.694Z,896.23
2019-06-08T13:21:48.616Z,896.20
2019-06-08T13:24:16.946Z,913.23
2019-06-08T13:26:43.484Z,961.63
2019-06-08T13:29:10.993Z,998.23
2019-06-08T13:31:38.330Z,997.43
2019-06-08T13:34:04.568Z,1052.93
2019-06-08T13:36:30.749Z,1057.67
2019-06-08T13:38:56.844Z,1069.20
2019-06-08T13:41:26.025Z,1072.27
2019-06-08T13:43:50.909Z,1082.23
2019-06-08T13:46:19.063Z,1080.23
2019-06-08T13:48:44.979Z,1086.00
2019-06-08T13:51:11.936Z,1081.27
2019-06-08T13:53:39.064Z,1074.07
2019-06-08T13:56:07.684Z,1049.50
2019-06-08T13:58:33.808Z,1027.73
2019-06-08T14:01:00.300Z,1000.77
2019-06-08T14:03:27.786Z,980.93
2019-06-08T14:05:54.088Z,990.03
2019-06-08T14:08:22.410Z,1017.53
2019-06-08T14:10:48.298Z,1041.37
2019-06-08T14:13:15.116Z,1036.00
2019-06-08T14:15:41.444Z,1026.37
2019-06-08T14:18:08.894Z,1051.50
2019-06-08T14:20:35.215Z,1053.43
2019-06-08T14:23:01.299Z,1065.50
2019-06-08T14:25:28.901Z,1076.07
2019-06-08T14:27:57.493Z,1087.00
2019-06-08T14:30:23.803Z,1103.40
2019-06-08T14:32:50.035Z,1123.70
2019-06-08T14:35:18.693Z,1113.70
2019-06-08T14:37:44.432Z,1117.87
2019-06-08T14:40:11.244Z,1100.90
2019-06-08T14:42:38.393Z,1072.27
2019-06-08T14:45:07.562Z,1067.43
2019-06-08T14:47:37.530Z,1068.03
2019-06-08T14:50:07.833Z,1094.97
2019-06-08T14:52:33.273Z,1105.83
2019-06-08T14:54:59.460Z,1100.33
2019-06-08T14:57:27.808Z,1115.13
2019-06-08T14:59:56.317Z,1125.93
2019-06-08T15:02:21.509Z,1122.50
2019-06-08T15:04:48.452Z,1136.67
2019-06-08T15:07:14.680Z,1143.47
2019-06-08T15:09:40.749Z,1146.63
2019-06-08T15:12:09.041Z,1126.77
2019-06-08T15:14:35.529Z,1119.27
2019-06-08T15:17:03.004Z,1124.33
2019-06-08T15:19:31.211Z,1125.00
2019-06-08T15:21:57.294Z,1125.73
2019-06-08T15:24:24.585Z,1138.60
2019-06-08T15:26:50.860Z,1146.20
2019-06-08T15:29:16.937Z,1183.73
2019-06-08T15:31:43.029Z,1142.33
2019-06-08T15:34:10.744Z,1138.60
2019-06-08T15:36:38.190Z,1124.60
2019-06-08T15:39:07.798Z,1091.10
2019-06-08T15:41:33.970Z,1099.73
2019-06-08T15:44:00.069Z,1116.03
2019-06-08T15:46:26.417Z,1133.10
2019-06-08T15:48:52.604Z,1150.23
2019-06-08T15:51:18.691Z,1138.37
2019-06-08T15:53:44.755Z,1119.23
2019-06-08T15:56:10.851Z,1143.27
2019-06-08T15:58:40.164Z,1151.07
2019-06-08T16:01:04.897Z,1143.07
2019-06-08T16:03:31.430Z,1161.70
2019-06-08T16:05:57.662Z,1168.83
2019-06-08T16:08:23.783Z,1168.13
2019-06-08T16:10:50.026Z,1128.67
2019-06-08T16:13:16.092Z,1131.80
2019-06-08T16:15:42.276Z,1125.90
2019-06-08T16:18:08.352Z,1119.97
2019-06-08T16:20:35.664Z,1125.77
2019-06-08T16:23:01.917Z,1110.03
2019-06-08T16:25:27.995Z,1111.10
2019-06-08T16:27:54.189Z,1113.00
2019-06-08T16:30:20.276Z,1137.30
2019-06-08T16:32:46.343Z,1152.93
2019-06-08T16:35:12.533Z,1143.50
2019-06-08T16:37:39.832Z,1151.70
2019-06-08T16:40:06.419Z,1152.57
2019-06-08T16:42:32.507Z,1160.53
2019-06-08T16:44:58.668Z,1166.97
2019-06-08T16:47:24.742Z,1163.03
2019-06-08T16:49:50.834Z,1161.53
2019-06-08T16:52:17.381Z,1147.03
2019-06-08T16:54:43.701Z,1146.90
2019-06-08T16:57:11.205Z,1124.03
2019-06-08T16:59:38.714Z,1112.73
2019-06-08T17:02:04.980Z,1115.77
2019-06-08T17:04:31.356Z,1104.60
2019-06-08T17:06:57.547Z,1085.20
2019-06-08T17:09:23.615Z,1062.53
2019-06-08T17:11:50.426Z,1019.80
2019-06-08T17:14:16.689Z,990.63
2019-06-08T17:16:42.784Z,945.20
2019-06-08T17:19:08.965Z,883.67
2019-06-08T17:21:36.265Z,846.07
2019-06-08T17:24:02.826Z,784.50
2019-06-08T17:26:28.924Z,709.90
2019-06-08T17:28:54.995Z,683.23
2019-06-08T17:31:21.702Z,637.00
2019-06-08T17:33:47.745Z,632.05
2019-06-08T17:36:13.800Z,614.20
2019-06-08T17:38:39.896Z,621.63
2019-06-08T17:41:05.973Z,606.25
2019-06-08T17:43:32.129Z,603.67
2019-06-08T17:45:58.370Z,617.87
2019-06-08T17:48:24.480Z,594.73
2019-06-08T17:50:50.532Z,626.17
2019-06-08T17:53:16.631Z,592.50
2019-06-08T17:55:43.934Z,592.33
2019-06-08T17:58:10.186Z,600.87
2019-06-08T18:00:37.399Z,600.58
2019-06-08T18:03:03.674Z,591.73
2019-06-08T18:05:29.759Z,588.77
2019-06-08T18:07:57.902Z,592.60
2019-06-08T18:10:23.916Z,609.65
2019-06-08T18:12:50.032Z,623.62
2019-06-08T18:15:17.509Z,603.75
2019-06-08T18:17:44.267Z,593.48
2019-06-08T18:20:13.471Z,585.48
2019-06-08T18:22:42.829Z,596.70
2019-06-08T18:25:07.864Z,591.65
2019-06-08T18:27:34.669Z,611.65
2019-06-08T18:30:08.042Z,566.60
2019-06-08T18:32:28.952Z,572.17
2019-06-08T18:34:57.128Z,567.70
2019-06-08T18:37:23.007Z,584.63
2019-06-08T18:39:49.656Z,576.73
2019-06-08T18:42:17.941Z,573.20
2019-06-08T18:44:45.813Z,574.77
2019-06-08T18:47:12.445Z,569.65
2019-06-08T18:49:41.617Z,584.42
2019-06-08T18:52:08.140Z,606.20
2019-06-08T18:54:35.424Z,604.55
2019-06-08T18:57:05.376Z,571.60
2019-06-08T18:59:30.664Z,661.83
2019-06-08T19:01:57.064Z,577.75
2019-06-08T19:04:23.232Z,603.12
2019-06-08T19:06:50.109Z,587.20
2019-06-08T19:09:17.188Z,569.77
2019-06-08T19:11:43.600Z,590.10
2019-06-08T19:14:11.396Z,588.55
2019-06-08T19:16:40.833Z,575.62
2019-06-08T19:19:07.444Z,571.72
2019-06-08T19:21:33.613Z,569.62
2019-06-08T19:23:59.928Z,562.20
2019-06-08T19:26:28.168Z,584.33
2019-06-08T19:28:54.403Z,575.33
2019-06-08T19:31:20.660Z,575.08
2019-06-08T19:33:53.320Z,563.42
2019-06-08T19:36:17.136Z,567.10
2019-06-08T19:38:44.585Z,571.90
2019-06-08T19:41:10.823Z,569.23
2019-06-08T19:43:39.968Z,554.60
2019-06-08T19:46:07.098Z,547.52
2019-06-08T19:48:32.863Z,570.05
2019-06-08T19:50:58.946Z,561.05
2019-06-08T19:53:25.028Z,553.98
2019-06-08T19:55:54.020Z,573.73
2019-06-08T19:58:19.077Z,610.50
2019-06-08T20:00:48.531Z,579.48
2019-06-08T20:03:13.464Z,561.90
2019-06-08T20:05:41.147Z,562.20
2019-06-08T20:08:08.022Z,566.85
2019-06-08T20:10:34.416Z,556.37
2019-06-08T20:13:00.780Z,573.08
2019-06-08T20:15:27.014Z,557.95
2019-06-08T20:17:54.057Z,581.50
2019-06-08T20:20:20.357Z,573.33
2019-06-08T20:22:49.017Z,571.33
2019-06-08T20:25:17.754Z,557.85
2019-06-08T20:27:45.255Z,560.30
2019-06-08T20:30:12.345Z,548.10
2019-06-08T20:32:38.611Z,556.37
2019-06-08T20:35:07.800Z,552.15
2019-06-08T20:37:33.581Z,559.45
2019-06-08T20:40:10.134Z,575.92
2019-06-08T20:42:28.927Z,560.78
2019-06-08T20:44:57.632Z,565.40
2019-06-08T20:47:23.240Z,556.73
2019-06-08T20:49:51.635Z,560.92
2019-06-08T20:52:17.737Z,561.40
2019-06-08T20:54:44.638Z,554.40
2019-06-08T20:57:10.785Z,583.80
2019-06-08T20:59:39.494Z,555.55
2019-06-08T21:02:04.860Z,544.00
2019-06-08T21:04:30.956Z,572.83
2019-06-08T21:06:57.454Z,539.30
2019-06-08T21:09:23.743Z,539.60
2019-06-08T21:11:52.502Z,543.40
2019-06-08T21:14:17.784Z,631.50
2019-06-08T21:16:44.647Z,541.33
2019-06-08T21:19:10.853Z,534.17
2019-06-08T21:21:37.692Z,541.60
2019-06-08T21:24:03.920Z,534.58
2019-06-08T21:26:30.016Z,544.13
2019-06-08T21:29:00.147Z,542.80
2019-06-08T21:31:24.088Z,558.33
2019-06-08T21:33:52.138Z,536.10
2019-06-08T21:36:18.275Z,548.62
2019-06-08T21:38:44.531Z,541.15
2019-06-08T21:41:10.623Z,549.20
2019-06-08T21:43:37.456Z,539.90
2019-06-08T21:46:03.785Z,546.00
2019-06-08T21:48:29.983Z,535.63
2019-06-08T21:50:59.552Z,550.62
2019-06-08T21:53:24.028Z,540.25
2019-06-08T21:55:50.657Z,543.23
2019-06-08T21:58:17.843Z,546.58
2019-06-08T22:00:47.196Z,556.15
2019-06-08T22:03:13.281Z,557.73
2019-06-08T22:05:39.508Z,548.45
2019-06-08T22:08:08.029Z,545.65
2019-06-08T22:10:34.148Z,543.70
2019-06-08T22:13:01.162Z,546.10
2019-06-08T22:15:27.504Z,558.92
2019-06-08T22:17:54.799Z,556.30
2019-06-08T22:20:21.155Z,544.52
2019-06-08T22:23:07.402Z,542.27
2019-06-08T22:25:33.625Z,542.10
2019-06-08T22:28:01.044Z,546.95
2019-06-08T22:30:36.348Z,550.25
2019-06-08T22:32:55.614Z,547.17
2019-06-08T22:35:21.866Z,550.00
2019-06-08T22:37:48.132Z,542.27
2019-06-08T22:40:14.452Z,544.62
2019-06-08T22:42:40.520Z,545.92
2019-06-08T22:45:08.229Z,546.53
2019-06-08T22:47:34.606Z,543.23
2019-06-08T22:50:02.157Z,546.98
2019-06-08T22:52:28.796Z,550.38
2019-06-08T22:54:58.421Z,542.53
2019-06-08T22:57:22.896Z,543.45
2019-06-08T22:59:48.995Z,554.77
2019-06-08T23:02:15.173Z,545.98
2019-06-08T23:04:41.253Z,546.95
2019-06-08T23:07:10.766Z,545.38
2019-06-08T23:09:37.324Z,545.17
2019-06-08T23:12:06.294Z,536.50
2019-06-08T23:14:31.594Z,603.90
2019-06-08T23:17:00.615Z,547.48
2019-06-08T23:19:26.410Z,556.17
2019-06-08T23:21:52.643Z,534.33
2019-06-08T23:24:18.733Z,535.70
2019-06-08T23:26:47.860Z,536.00
2019-06-08T23:29:13.389Z,549.75
2019-06-08T23:31:39.456Z,533.38
2019-06-08T23:34:09.814Z,545.30
2019-06-08T23:36:48.520Z,537.55
2019-06-08T23:39:01.576Z,538.40
2019-06-08T23:41:27.676Z,535.10
2019-06-08T23:43:53.752Z,540.60
2019-06-08T23:46:19.850Z,536.98
2019-06-08T23:48:48.161Z,531.33
2019-06-08T23:51:13.884Z,533.05
2019-06-08T23:53:39.968Z,551.15
2019-06-08T23:56:08.458Z,539.97
2019-06-08T23:58:34.017Z,540.33
